Time;durP1;ratioP1;P1;durP2;ratioP2;P2;SDS_P1;SDS_P2;PMS_P1;PMS_P2;Temp;Humidity;BMP_temperature;BMP_pressure;BME280_temperature;BME280_humidity;BME280_pressure;Samples;Min_cycle;Max_cycle;Signal;HPM_P1;HPM_P2
2022/12/18 00:01:37;;;;;;;16.83;10.13;;;-2.40;99.90;-2.90;102086.00;;;;5014735;27;87553;-65
2022/12/18 00:04:16;;;;;;;15.67;8.43;;;-2.40;99.90;-2.90;102079.00;;;;5010532;27;88756;-65
2022/12/18 00:06:42;;;;;;;23.83;11.37;;;-2.40;99.90;-2.80;102084.00;;;;5014067;27;88227;-65
2022/12/18 00:09:09;;;;;;;17.50;10.00;;;-2.30;99.90;-2.80;102086.00;;;;5010593;27;87446;-67
2022/12/18 00:11:34;;;;;;;19.40;10.70;;;-2.40;99.90;-2.80;102080.00;;;;5010139;27;88084;-65
2022/12/18 00:14:00;;;;;;;17.70;10.63;;;-2.20;99.90;-2.80;102074.00;;;;5014591;27;87217;-63
2022/12/18 00:16:28;;;;;;;22.17;11.70;;;-2.30;99.90;-2.80;102073.00;;;;5015114;27;87325;-66
2022/12/18 00:19:00;;;;;;;16.50;10.90;;;-2.30;99.90;-2.80;102072.00;;;;5011037;27;86983;-65
2022/12/18 00:21:27;;;;;;;25.43;11.43;;;-2.40;99.90;-2.90;102077.00;;;;5011129;27;86857;-66
2022/12/18 00:23:53;;;;;;;20.73;11.60;;;-2.40;99.90;-2.90;102076.00;;;;5017433;27;87757;-65
2022/12/18 00:26:26;;;;;;;23.40;12.97;;;-2.50;99.90;-3.00;102081.00;;;;5010627;27;87226;-65
2022/12/18 00:28:53;;;;;;;20.93;11.17;;;-2.30;99.90;-3.00;102078.00;;;;5012000;27;88249;-65
2022/12/18 00:31:22;;;;;;;23.00;12.00;;;-2.50;99.90;-2.90;102082.00;;;;5015668;27;87493;-64
2022/12/18 00:33:48;;;;;;;19.20;10.03;;;-2.50;99.90;-2.90;102088.00;;;;5014722;27;87083;-65
2022/12/18 00:36:18;;;;;;;22.63;12.63;;;-2.40;99.90;-2.90;102078.00;;;;5012096;27;88655;-64
2022/12/18 00:38:45;;;;;;;22.33;12.17;;;-2.50;99.90;-2.90;102082.00;;;;5012530;27;87734;-63
2022/12/18 00:42:55;;;;;;;19.50;11.47;;;-2.50;99.90;-2.90;102089.00;;;;5013472;27;87000;-64
2022/12/18 00:44:01;;;;;;;23.33;11.93;;;-2.40;99.90;-2.90;102089.00;;;;5010690;27;88221;-63
2022/12/18 00:46:27;;;;;;;27.07;12.83;;;-2.30;99.90;-2.90;102098.00;;;;5004751;27;88897;-64
2022/12/18 00:48:52;;;;;;;21.37;11.87;;;-2.40;99.90;-3.00;102092.00;;;;5014705;27;87463;-64
2022/12/18 00:51:18;;;;;;;17.70;11.73;;;-3.20;99.90;-3.10;102095.00;;;;5016163;27;87492;-64
2022/12/18 00:53:44;;;;;;;28.07;14.20;;;-2.60;99.90;-3.20;102106.00;;;;5011358;27;88348;-65
2022/12/18 00:56:10;;;;;;;23.57;12.80;;;-2.60;99.90;-3.20;102098.00;;;;5013376;27;88279;-64
2022/12/18 00:58:36;;;;;;;19.80;11.40;;;-2.70;99.90;-3.20;102099.00;;;;5015226;27;87079;-65
2022/12/18 01:01:04;;;;;;;24.37;11.60;;;-2.60;99.90;-3.20;102110.00;;;;5012846;27;87778;-65
2022/12/18 01:03:30;;;;;;;23.33;12.03;;;-2.70;99.90;-3.20;102113.00;;;;5014361;27;87562;-65
2022/12/18 01:05:56;;;;;;;22.23;11.83;;;-2.70;99.90;-3.30;102118.00;;;;5012392;27;87387;-65
2022/12/18 01:08:22;;;;;;;24.47;13.13;;;-2.70;99.90;-3.30;102117.00;;;;5010173;27;87134;-65
2022/12/18 01:10:48;;;;;;;23.83;11.63;;;-2.70;99.90;-3.30;102127.00;;;;5012829;27;86857;-64
2022/12/18 01:13:13;;;;;;;20.80;12.50;;;-2.70;99.90;-3.30;102112.00;;;;5011170;27;89211;-65
2022/12/18 01:15:39;;;;;;;20.33;11.80;;;-2.70;99.90;-3.30;102131.00;;;;5012951;27;87638;-65
2022/12/18 01:18:06;;;;;;;27.67;13.43;;;-2.80;99.90;-3.30;102135.00;;;;5014259;27;88579;-64
2022/12/18 01:20:32;;;;;;;21.57;11.93;;;-2.80;99.90;-3.30;102134.00;;;;5015274;27;87582;-67
2022/12/18 01:22:58;;;;;;;23.20;10.70;;;-2.80;99.90;-3.30;102141.00;;;;5012460;27;87567;-65
2022/12/18 01:25:24;;;;;;;20.43;11.10;;;-2.80;99.90;-3.30;102133.00;;;;5006470;27;89708;-65
2022/12/18 01:27:50;;;;;;;19.50;10.87;;;-2.80;99.90;-3.30;102128.00;;;;5014292;27;87450;-65
2022/12/18 01:30:16;;;;;;;19.33;10.07;;;-2.70;99.90;-3.30;102119.00;;;;5008048;27;87398;-65
2022/12/18 01:32:42;;;;;;;18.43;10.23;;;-2.80;99.90;-3.40;102108.00;;;;5010995;27;87744;-65
2022/12/18 01:35:08;;;;;;;19.20;8.93;;;-2.70;99.90;-3.40;102116.00;;;;5012813;27;88006;-65
2022/12/18 01:37:34;;;;;;;17.00;9.83;;;-2.90;99.90;-3.40;102114.00;;;;5016976;27;87393;-65
2022/12/18 01:40:00;;;;;;;18.93;10.70;;;-2.90;99.90;-3.50;102118.00;;;;5009881;27;87285;-64
2022/12/18 01:42:26;;;;;;;18.23;9.87;;;-2.90;99.90;-3.50;102125.00;;;;5013154;27;88549;-65
2022/12/18 01:45:15;;;;;;;15.23;9.70;;;-3.00;99.90;-3.60;102133.00;;;;5011367;27;88724;-66
2022/12/18 01:47:56;;;;;;;16.47;9.60;;;-3.00;99.90;-3.60;102128.00;;;;5012622;27;86964;-65
2022/12/18 01:50:44;;;;;;;21.03;10.13;;;-2.90;99.90;-3.70;102116.00;;;;5010923;27;87477;-65
2022/12/18 01:53:23;;;;;;;17.90;10.47;;;-3.00;99.90;-3.70;102114.00;;;;5014342;27;87571;-64
2022/12/18 01:55:52;;;;;;;21.60;10.80;;;-3.10;99.90;-3.70;102112.00;;;;5012181;27;87571;-65
2022/12/18 01:58:20;;;;;;;20.47;11.43;;;-3.10;99.90;-3.60;102107.00;;;;4995866;27;87426;-65
2022/12/18 02:00:46;;;;;;;22.30;11.77;;;-2.20;99.90;-3.60;102113.00;;;;5011785;27;86627;-63
2022/12/18 02:03:12;;;;;;;23.10;10.17;;;-3.10;99.90;-3.50;102127.00;;;;5008738;27;87865;-64
2022/12/18 02:06:09;;;;;;;17.47;10.03;;;-3.00;99.90;-3.60;102138.00;;;;4995918;27;87453;-65
2022/12/18 02:08:57;;;;;;;21.77;11.10;;;-3.10;99.90;-3.60;102143.00;;;;5009026;27;88684;-65
2022/12/18 02:11:53;;;;;;;22.97;10.13;;;-3.10;99.90;-3.60;102150.00;;;;5009739;27;87570;-63
2022/12/18 02:14:55;;;;;;;19.77;11.13;;;-3.00;99.90;-3.60;102139.00;;;;5014106;27;87693;-64
2022/12/18 02:17:25;;;;;;;19.83;10.57;;;-2.90;99.90;-3.60;102143.00;;;;5010882;27;87413;-65
2022/12/18 02:20:14;;;;;;;20.27;11.03;;;-3.00;99.90;-3.60;102131.00;;;;4978284;27;87595;-65
2022/12/18 02:23:20;;;;;;;24.43;11.43;;;-3.10;99.90;-3.60;102132.00;;;;4995026;27;87506;-65
2022/12/18 02:26:13;;;;;;;18.07;10.07;;;-3.10;99.90;-3.70;102152.00;;;;5011050;27;87839;-64
2022/12/18 02:29:02;;;;;;;18.80;10.03;;;-3.20;99.90;-3.80;102164.00;;;;5015519;27;87239;-65
2022/12/18 02:31:39;;;;;;;22.20;12.03;;;-3.10;99.90;-3.80;102142.00;;;;5008020;27;87318;-65
2022/12/18 02:34:07;;;;;;;23.10;12.30;;;-3.20;99.90;-3.80;102145.00;;;;5013427;27;87487;-63
2022/12/18 02:36:35;;;;;;;21.67;11.07;;;-3.30;99.90;-3.80;102143.00;;;;5006495;27;88394;-66
2022/12/18 02:39:02;;;;;;;19.43;10.93;;;-3.30;99.90;-3.90;102141.00;;;;5013271;27;88135;-65
2022/12/18 02:41:29;;;;;;;19.27;11.30;;;-3.30;99.90;-3.90;102148.00;;;;5012436;27;87038;-65
2022/12/18 02:44:01;;;;;;;24.67;10.87;;;-3.40;99.90;-3.90;102141.00;;;;4957491;28;87568;-66
2022/12/18 02:46:42;;;;;;;19.50;11.70;;;-3.50;99.90;-3.90;102143.00;;;;4990797;28;88429;-65
2022/12/18 02:49:28;;;;;;;22.47;11.83;;;-3.50;99.90;-3.90;102153.00;;;;4990879;28;87438;-65
2022/12/18 02:52:49;;;;;;;28.20;12.40;;;-3.40;99.90;-3.90;102167.00;;;;4973655;27;87805;-64
2022/12/18 02:56:03;;;;;;;22.47;12.00;;;-3.40;99.90;-4.00;102158.00;;;;4995767;27;86734;-64
2022/12/18 02:59:01;;;;;;;27.13;11.73;;;-3.30;99.90;-4.00;102147.00;;;;4958236;28;87951;-65
2022/12/18 03:01:50;;;;;;;21.10;11.77;;;-3.50;99.90;-4.00;102146.00;;;;4997202;27;87566;-65
2022/12/18 03:04:33;;;;;;;21.87;11.40;;;-3.40;99.90;-4.00;102143.00;;;;4974163;28;88600;-65
2022/12/18 03:07:09;;;;;;;19.67;10.97;;;-3.40;99.90;-4.00;102145.00;;;;4971914;28;87543;-64
2022/12/18 03:09:41;;;;;;;23.67;12.10;;;-3.50;99.90;-4.00;102146.00;;;;4986427;28;87737;-64
2022/12/18 03:12:22;;;;;;;24.67;13.30;;;-3.20;99.90;-4.00;102141.00;;;;4992506;27;87934;-63
2022/12/18 03:14:57;;;;;;;20.67;12.00;;;-3.40;99.90;-4.00;102132.00;;;;4993833;27;87576;-64
2022/12/18 03:17:27;;;;;;;19.80;11.17;;;-3.50;99.90;-4.00;102140.00;;;;4996123;27;87411;-64
2022/12/18 03:19:57;;;;;;;24.67;12.97;;;-3.40;99.90;-4.00;102135.00;;;;4992524;27;87583;-66
2022/12/18 03:22:27;;;;;;;24.93;11.67;;;-3.50;99.90;-4.00;102147.00;;;;4993263;27;87265;-66
2022/12/18 03:24:57;;;;;;;25.10;11.93;;;-3.60;99.90;-4.00;102150.00;;;;4992103;27;87464;-65
2022/12/18 03:27:25;;;;;;;21.03;11.67;;;-3.50;99.90;-4.10;102155.00;;;;4994029;27;87554;-65
2022/12/18 03:30:07;;;;;;;21.57;12.67;;;-3.40;99.90;-4.10;102142.00;;;;4971865;27;88412;-65
2022/12/18 03:32:44;;;;;;;22.80;11.67;;;-3.50;99.90;-4.10;102163.00;;;;4992139;28;88310;-64
2022/12/18 03:35:18;;;;;;;19.07;10.73;;;-3.50;99.90;-4.20;102156.00;;;;4973676;28;87348;-64
2022/12/18 03:37:44;;;;;;;24.07;11.67;;;-3.60;99.90;-4.20;102150.00;;;;4971643;28;87658;-64
2022/12/18 03:40:10;;;;;;;23.27;12.07;;;-3.60;99.90;-4.20;102159.00;;;;4992085;27;87612;-65
2022/12/18 03:42:49;;;;;;;27.57;13.33;;;-3.60;99.90;-4.20;102163.00;;;;5001127;27;87217;-64
2022/12/18 03:45:28;;;;;;;23.67;12.80;;;-3.70;99.90;-4.20;102165.00;;;;4987278;27;87526;-65
2022/12/18 03:48:20;;;;;;;23.43;12.43;;;-3.70;99.90;-4.30;102158.00;;;;5013337;27;86361;-65
2022/12/18 03:51:14;;;;;;;21.60;12.67;;;-3.70;99.90;-4.30;102168.00;;;;4995430;27;87556;-63
2022/12/18 03:53:59;;;;;;;24.67;13.17;;;-3.70;99.90;-4.20;102168.00;;;;5008036;27;87436;-65
2022/12/18 03:56:30;;;;;;;25.03;13.47;;;-3.60;99.90;-4.20;102160.00;;;;5008195;27;88424;-65
2022/12/18 03:58:58;;;;;;;26.70;13.10;;;-3.70;99.90;-4.30;102163.00;;;;5010555;27;87475;-65
2022/12/18 04:01:31;;;;;;;24.23;13.77;;;-3.70;99.90;-4.30;102167.00;;;;5015197;27;88554;-65
2022/12/18 04:04:01;;;;;;;23.17;12.93;;;-3.70;99.90;-4.30;102176.00;;;;5014181;27;87262;-64
2022/12/18 04:06:29;;;;;;;24.30;12.97;;;-3.60;99.90;-4.30;102184.00;;;;4992004;27;87074;-64
2022/12/18 04:08:58;;;;;;;27.33;14.17;;;-3.10;99.90;-4.30;102185.00;;;;5007738;27;87299;-65
2022/12/18 04:11:27;;;;;;;22.67;11.60;;;-3.80;99.90;-4.20;102187.00;;;;4992526;27;87713;-66
2022/12/18 04:13:57;;;;;;;22.23;11.87;;;-3.70;99.90;-4.20;102184.00;;;;4990678;27;87948;-65
2022/12/18 04:16:26;;;;;;;18.67;12.07;;;-3.60;99.90;-4.20;102185.00;;;;5010916;27;87377;-64
2022/12/18 04:18:53;;;;;;;26.57;12.97;;;-3.70;99.90;-4.20;102194.00;;;;5010215;27;87379;-63
2022/12/18 04:21:20;;;;;;;20.83;12.60;;;-3.60;99.90;-4.10;102191.00;;;;5010104;27;88500;-65
2022/12/18 04:23:46;;;;;;;25.03;13.20;;;-3.50;99.90;-4.10;102201.00;;;;5010896;27;87798;-66
2022/12/18 04:26:12;;;;;;;27.23;13.43;;;-3.50;99.90;-4.10;102199.00;;;;4995754;27;87544;-62
2022/12/18 04:28:37;;;;;;;24.13;13.57;;;-3.60;99.90;-4.10;102207.00;;;;5014965;27;89019;-64
2022/12/18 04:31:04;;;;;;;22.23;11.37;;;-3.50;99.90;-4.10;102197.00;;;;4997635;27;89269;-63
2022/12/18 04:33:29;;;;;;;27.27;14.73;;;-3.60;99.90;-4.00;102201.00;;;;4995801;27;87395;-64
2022/12/18 04:35:55;;;;;;;27.83;15.73;;;-3.40;99.90;-4.10;102206.00;;;;5012832;27;87407;-64
2022/12/18 04:38:21;;;;;;;27.00;13.10;;;-3.50;99.90;-4.10;102212.00;;;;5016960;27;86299;-64
2022/12/18 04:40:47;;;;;;;21.33;12.33;;;-3.50;99.90;-4.10;102208.00;;;;5001735;27;87557;-65
2022/12/18 04:43:13;;;;;;;27.03;13.97;;;-3.60;99.90;-4.20;102199.00;;;;5013653;27;87431;-66
2022/12/18 04:45:39;;;;;;;23.97;12.67;;;-3.60;99.90;-4.10;102200.00;;;;5009615;27;88125;-65
2022/12/18 04:48:05;;;;;;;28.23;12.47;;;-3.60;99.90;-4.10;102208.00;;;;4981141;27;87650;-62
2022/12/18 04:50:31;;;;;;;22.70;13.07;;;-3.50;99.90;-4.10;102215.00;;;;5012734;27;87541;-62
2022/12/18 04:52:58;;;;;;;27.27;14.10;;;-3.60;99.90;-4.10;102209.00;;;;5015537;27;87432;-63
2022/12/18 04:55:23;;;;;;;26.07;13.20;;;-2.40;99.90;-4.10;102198.00;;;;5011743;27;87634;-64
2022/12/18 04:57:49;;;;;;;25.27;13.37;;;-3.70;99.90;-4.20;102205.00;;;;5014268;27;87464;-65
2022/12/18 05:00:16;;;;;;;25.90;14.37;;;-3.70;99.90;-4.20;102197.00;;;;4992830;27;87932;-62
2022/12/18 05:02:42;;;;;;;23.53;12.50;;;-3.80;99.90;-4.30;102204.00;;;;5014852;27;87284;-65
2022/12/18 05:05:08;;;;;;;29.63;14.83;;;-3.70;99.90;-4.30;102202.00;;;;5012164;27;87329;-63
2022/12/18 05:07:34;;;;;;;26.50;13.47;;;-3.80;99.90;-4.40;102199.00;;;;5012549;27;86993;-65
2022/12/18 05:10:00;;;;;;;24.67;12.47;;;-3.70;99.90;-4.40;102205.00;;;;5013052;27;88521;-61
2022/12/18 05:12:26;;;;;;;25.43;13.30;;;-3.90;99.90;-4.40;102211.00;;;;5014150;27;94919;-62
2022/12/18 05:14:52;;;;;;;27.13;12.93;;;-3.80;99.90;-4.40;102213.00;;;;5014076;27;87885;-66
2022/12/18 05:17:18;;;;;;;26.40;13.50;;;-3.90;99.90;-4.50;102205.00;;;;5014276;27;87388;-65
2022/12/18 05:19:44;;;;;;;28.53;12.73;;;-2.90;99.90;-4.50;102206.00;;;;5013347;27;87497;-63
2022/12/18 05:22:09;;;;;;;29.37;14.50;;;-2.70;99.90;-4.50;102210.00;;;;4985659;27;87391;-64
2022/12/18 05:24:35;;;;;;;25.47;13.07;;;-3.90;99.90;-4.60;102200.00;;;;4997828;27;87714;-62
2022/12/18 05:27:01;;;;;;;19.63;11.13;;;-3.90;99.90;-4.60;102207.00;;;;5013754;27;86534;-67
2022/12/18 05:29:27;;;;;;;29.07;13.90;;;-4.10;99.90;-4.60;102200.00;;;;5001680;27;87540;-63
2022/12/18 05:31:53;;;;;;;28.57;14.83;;;-4.10;99.90;-4.60;102207.00;;;;5012061;27;87520;-64
2022/12/18 05:34:19;;;;;;;20.87;12.47;;;-4.00;99.90;-4.70;102211.00;;;;5009389;27;88445;-63
2022/12/18 05:36:45;;;;;;;20.00;12.93;;;-4.00;99.90;-4.70;102215.00;;;;4994704;27;87624;-64
2022/12/18 05:39:11;;;;;;;28.40;13.50;;;-4.00;99.90;-4.70;102224.00;;;;5008162;27;87664;-65
2022/12/18 05:41:37;;;;;;;24.13;14.00;;;-4.00;99.90;-4.70;102222.00;;;;5028192;27;87340;-63
2022/12/18 05:44:03;;;;;;;24.07;13.07;;;-4.10;99.90;-4.70;102238.00;;;;5002730;27;87523;-64
2022/12/18 05:46:29;;;;;;;24.67;13.80;;;-4.10;99.90;-4.70;102248.00;;;;5016135;27;87614;-65
2022/12/18 05:48:55;;;;;;;36.07;15.73;;;-4.10;99.90;-4.70;102241.00;;;;5011199;27;87579;-61
2022/12/18 05:51:22;;;;;;;25.00;13.87;;;-4.20;99.90;-4.70;102230.00;;;;5015999;27;87610;-64
2022/12/18 05:53:48;;;;;;;26.60;13.23;;;-4.10;99.90;-4.70;102225.00;;;;5035375;27;87567;-63
2022/12/18 05:56:19;;;;;;;30.83;16.73;;;-4.10;99.90;-4.70;102245.00;;;;5016101;27;87439;-65
2022/12/18 05:58:45;;;;;;;22.90;13.00;;;-4.10;99.90;-4.70;102235.00;;;;5033407;27;89062;-64
2022/12/18 06:01:19;;;;;;;24.77;12.63;;;-4.20;99.90;-4.80;102232.00;;;;5032335;27;88100;-62
2022/12/18 06:03:45;;;;;;;24.43;13.67;;;-3.40;99.90;-4.80;102235.00;;;;5033081;27;87331;-63
2022/12/18 06:06:20;;;;;;;23.57;13.40;;;-3.30;99.90;-4.90;102225.00;;;;5033322;27;87251;-66
2022/12/18 06:08:49;;;;;;;27.70;14.47;;;-4.20;99.90;-4.90;102235.00;;;;4984823;27;87773;-66
2022/12/18 06:11:23;;;;;;;31.97;14.33;;;-4.30;99.90;-4.80;102236.00;;;;5034719;27;88650;-64
2022/12/18 06:13:56;;;;;;;24.97;13.90;;;-4.30;99.90;-4.90;102248.00;;;;5032639;27;87362;-63
2022/12/18 06:16:22;;;;;;;32.37;13.30;;;-4.30;99.90;-4.90;102247.00;;;;5030524;27;86808;-66
2022/12/18 06:18:49;;;;;;;30.03;14.43;;;-4.30;99.90;-4.90;102241.00;;;;5032212;27;87773;-65
2022/12/18 06:21:15;;;;;;;22.80;14.30;;;-4.50;99.90;-4.90;102251.00;;;;5011835;27;89439;-65
2022/12/18 06:23:41;;;;;;;33.80;14.50;;;-4.40;99.90;-5.00;102259.00;;;;5032910;27;88536;-65
2022/12/18 06:26:11;;;;;;;28.10;14.43;;;-4.50;99.90;-5.00;102258.00;;;;4995184;27;87141;-63
2022/12/18 06:28:37;;;;;;;22.33;12.30;;;-4.40;99.90;-5.00;102264.00;;;;5012165;27;87561;-66
2022/12/18 06:31:05;;;;;;;28.00;12.87;;;-4.40;99.90;-5.00;102269.00;;;;5008201;27;87815;-65
2022/12/18 06:33:32;;;;;;;27.23;14.30;;;-4.30;99.90;-5.00;102262.00;;;;5031569;27;87721;-64
2022/12/18 06:36:11;;;;;;;25.33;14.40;;;-4.30;99.90;-5.00;102252.00;;;;5030468;27;87098;-62
2022/12/18 06:38:42;;;;;;;30.57;14.57;;;-4.40;99.90;-5.00;102255.00;;;;5013556;27;89745;-65
2022/12/18 06:41:12;;;;;;;28.30;13.97;;;-4.40;99.90;-5.00;102262.00;;;;5009824;27;89559;-64
2022/12/18 06:43:38;;;;;;;28.50;12.43;;;-3.40;99.90;-5.10;102271.00;;;;5030476;27;87613;-65
2022/12/18 06:46:05;;;;;;;20.37;10.77;;;-4.40;99.90;-5.10;102266.00;;;;5015149;27;87408;-63
2022/12/18 06:48:32;;;;;;;18.37;10.87;;;-4.50;99.90;-5.10;102282.00;;;;5010919;27;89966;-62
2022/12/18 06:50:58;;;;;;;19.87;10.47;;;-4.60;99.90;-5.20;102275.00;;;;5032485;27;88767;-63
2022/12/18 06:53:24;;;;;;;19.10;11.30;;;-4.60;99.90;-5.20;102283.00;;;;5016071;27;87676;-61
2022/12/18 06:55:49;;;;;;;23.00;11.00;;;-4.50;99.90;-5.20;102275.00;;;;5034462;27;87623;-63
2022/12/18 06:58:15;;;;;;;21.27;10.43;;;-4.50;99.90;-5.20;102284.00;;;;5031622;27;95090;-60
2022/12/18 07:00:41;;;;;;;18.87;10.77;;;-3.60;99.90;-5.20;102277.00;;;;5009035;27;111319;-64
2022/12/18 07:03:07;;;;;;;19.27;10.60;;;-4.60;99.90;-5.20;102264.00;;;;5031470;27;87780;-63
2022/12/18 07:05:33;;;;;;;21.33;11.77;;;-4.50;99.90;-5.20;102280.00;;;;5014478;27;86903;-61
2022/12/18 07:07:59;;;;;;;22.90;11.33;;;-3.20;99.90;-5.20;102287.00;;;;5031826;27;90895;-63
2022/12/18 07:10:24;;;;;;;19.23;10.07;;;-4.20;99.90;-5.20;102287.00;;;;5029304;27;91003;-62
2022/12/18 07:12:50;;;;;;;21.47;10.83;;;-4.60;99.90;-5.30;102283.00;;;;5034249;27;88784;-60
2022/12/18 07:15:16;;;;;;;25.23;12.03;;;-4.70;99.90;-5.30;102295.00;;;;5030924;27;97718;-63
2022/12/18 07:17:42;;;;;;;18.20;10.87;;;-4.70;99.90;-5.30;102291.00;;;;5028398;27;114986;-61
2022/12/18 07:20:09;;;;;;;18.43;10.53;;;-4.80;99.90;-5.40;102296.00;;;;5028981;27;90496;-62
2022/12/18 07:22:35;;;;;;;18.67;10.17;;;-4.70;99.90;-5.40;102302.00;;;;5030231;27;88096;-63
2022/12/18 07:25:00;;;;;;;17.60;9.93;;;-4.20;99.90;-5.40;102312.00;;;;5026280;27;87762;-64
2022/12/18 07:27:26;;;;;;;20.13;9.63;;;-4.60;99.90;-5.50;102310.00;;;;5028292;27;117095;-62
2022/12/18 07:29:52;;;;;;;18.93;10.17;;;-4.90;99.90;-5.50;102317.00;;;;5010736;27;119285;-62
2022/12/18 07:32:17;;;;;;;20.90;11.00;;;-4.90;99.90;-5.50;102319.00;;;;5030556;27;87580;-64
2022/12/18 07:34:43;;;;;;;17.60;10.13;;;-4.90;99.90;-5.50;102322.00;;;;5014241;27;87703;-62
2022/12/18 07:37:09;;;;;;;17.73;9.90;;;-5.00;99.90;-5.60;102314.00;;;;5030369;27;89015;-63
2022/12/18 07:39:35;;;;;;;15.87;9.93;;;-3.80;99.90;-5.60;102318.00;;;;5030061;27;89505;-64
2022/12/18 07:44:46;;;;;;;17.97;10.57;;;-5.10;99.90;-5.70;102321.00;;;;5032795;27;88266;-63
2022/12/18 07:47:11;;;;;;;22.20;11.67;;;-5.10;99.90;-5.70;102338.00;;;;5017176;27;89243;-65
2022/12/18 07:49:37;;;;;;;21.70;11.17;;;-5.20;99.90;-5.70;102332.00;;;;5012721;27;90965;-62
2022/12/18 07:52:03;;;;;;;16.87;10.67;;;-5.20;99.90;-5.70;102339.00;;;;5028135;27;87817;-62
2022/12/18 07:54:29;;;;;;;14.97;9.60;;;-5.00;99.90;-5.60;102325.00;;;;5010710;27;87112;-62
2022/12/18 07:56:55;;;;;;;19.93;11.03;;;-4.90;99.90;-5.40;102326.00;;;;5028937;27;117705;-62
2022/12/18 07:59:21;;;;;;;20.27;12.00;;;-4.90;99.90;-5.30;102329.00;;;;5032319;27;88434;-61
2022/12/18 08:01:46;;;;;;;23.17;11.13;;;-4.80;99.90;-5.20;102314.00;;;;5016716;27;88378;-64
2022/12/18 08:04:12;;;;;;;23.63;12.57;;;-4.70;99.90;-5.00;102309.00;;;;5036987;27;87599;-63
2022/12/18 08:06:38;;;;;;;23.60;13.37;;;-4.50;99.90;-4.90;102314.00;;;;5035605;27;99445;-62
2022/12/18 08:09:04;;;;;;;19.57;11.43;;;-4.40;99.90;-4.70;102302.00;;;;5032396;27;88326;-61
2022/12/18 08:11:30;;;;;;;19.60;11.50;;;-4.20;99.90;-4.60;102294.00;;;;5031781;27;87489;-63
2022/12/18 08:13:56;;;;;;;20.40;11.03;;;-3.00;99.90;-4.40;102306.00;;;;5014421;27;108451;-63
2022/12/18 08:16:23;;;;;;;16.37;10.10;;;-3.90;99.90;-4.20;102295.00;;;;5034854;27;89045;-62
2022/12/18 08:18:51;;;;;;;17.20;10.83;;;-3.70;99.90;-4.00;102301.00;;;;5033464;27;87176;-62
2022/12/18 08:21:22;;;;;;;22.93;11.07;;;-3.60;99.90;-3.90;102298.00;;;;5033937;27;87563;-64
2022/12/18 08:23:49;;;;;;;15.40;8.60;;;-3.40;99.90;-3.80;102301.00;;;;5031995;27;87872;-61
2022/12/18 08:26:15;;;;;;;18.13;11.73;;;-3.20;99.90;-3.60;102311.00;;;;5015179;27;91442;-64
2022/12/18 08:28:42;;;;;;;20.67;12.23;;;-3.10;99.90;-3.50;102318.00;;;;5007175;27;92851;-65
2022/12/18 08:31:09;;;;;;;15.73;9.80;;;-3.00;99.90;-3.20;102328.00;;;;5032643;27;89400;-62
2022/12/18 08:33:37;;;;;;;14.37;9.60;;;-2.80;99.90;-3.00;102320.00;;;;5014547;27;101106;-63
2022/12/18 08:36:05;;;;;;;12.03;8.17;;;-2.60;99.90;-2.80;102321.00;;;;5034215;27;87849;-63
2022/12/18 08:38:32;;;;;;;14.43;9.17;;;-2.40;99.90;-2.70;102320.00;;;;4996834;27;89742;-59
2022/12/18 08:41:08;;;;;;;13.47;7.57;;;-1.30;99.90;-2.60;102343.00;;;;5032169;27;87759;-63
2022/12/18 08:46:20;;;;;;;10.93;6.73;;;-2.00;99.90;-2.40;102321.00;;;;5030979;27;88040;-63
2022/12/18 08:48:47;;;;;;;13.37;8.10;;;-1.80;99.90;-2.40;102321.00;;;;5012527;27;88902;-62
2022/12/18 08:51:13;;;;;;;14.87;8.87;;;-1.10;99.90;-2.30;102329.00;;;;5030678;27;109687;-60
2022/12/18 08:53:38;;;;;;;11.73;7.20;;;-1.80;99.90;-2.20;102324.00;;;;5032961;27;87978;-63
2022/12/18 08:56:05;;;;;;;10.70;6.87;;;-1.80;99.90;-2.10;102319.00;;;;5033944;27;88246;-63
2022/12/18 08:58:31;;;;;;;12.67;7.17;;;-1.70;99.90;-2.10;102319.00;;;;5030453;27;103596;-64
2022/12/18 09:01:05;;;;;;;16.17;9.20;;;-1.60;99.90;-2.00;102317.00;;;;4997324;27;87690;-62
2022/12/18 09:03:31;;;;;;;13.23;8.97;;;-1.60;99.90;-1.90;102328.00;;;;5032254;27;87811;-62
2022/12/18 09:05:56;;;;;;;11.03;7.30;;;-1.50;99.90;-1.80;102329.00;;;;5029404;27;89098;-65
2022/12/18 09:08:23;;;;;;;13.27;6.93;;;-1.30;99.90;-1.70;102324.00;;;;5013240;27;92436;-64
2022/12/18 09:10:50;;;;;;;11.20;6.27;;;-1.30;99.90;-1.50;102327.00;;;;5020133;27;87632;-65
2022/12/18 09:13:17;;;;;;;12.27;6.30;;;-1.20;99.90;-1.30;102327.00;;;;5035586;27;87718;-65
2022/12/18 09:15:45;;;;;;;11.67;7.13;;;-1.00;99.90;-1.10;102334.00;;;;5035843;27;88827;-65
2022/12/18 09:18:12;;;;;;;8.53;6.47;;;-0.80;99.90;-1.00;102331.00;;;;5036124;27;88298;-67
2022/12/18 09:20:38;;;;;;;8.07;5.77;;;-0.60;99.90;-0.80;102339.00;;;;5037479;27;87668;-64
2022/12/18 09:23:05;;;;;;;9.43;6.77;;;-0.50;99.90;-0.70;102339.00;;;;5040388;27;87538;-66
2022/12/18 09:25:33;;;;;;;8.30;5.77;;;0.50;99.90;-0.50;102341.00;;;;5036788;27;88920;-65
2022/12/18 09:28:05;;;;;;;9.27;5.73;;;-0.30;99.90;-0.30;102350.00;;;;5037105;27;87591;-67
2022/12/18 09:30:33;;;;;;;11.00;6.43;;;0.00;99.90;-0.10;102345.00;;;;5035974;27;87594;-66
2022/12/18 09:32:59;;;;;;;12.00;6.37;;;0.10;99.90;0.10;102360.00;;;;5018151;27;87028;-65
2022/12/18 09:35:27;;;;;;;14.93;7.43;;;0.20;99.90;0.20;102368.00;;;;5033762;27;87681;-65
2022/12/18 09:37:53;;;;;;;159.27;86.73;;;0.70;99.90;0.40;102386.00;;;;5033951;27;87529;-65
2022/12/18 09:40:23;;;;;;;22.23;13.70;;;0.60;99.90;0.70;102381.00;;;;5031997;27;99035;-65
2022/12/18 09:42:56;;;;;;;15.90;8.17;;;0.90;99.90;1.00;102389.00;;;;5032984;27;87755;-65
2022/12/18 09:45:23;;;;;;;13.73;11.33;;;1.10;99.90;1.20;102371.00;;;;5028333;27;88637;-64
2022/12/18 09:47:52;;;;;;;10.83;7.83;;;1.30;99.90;1.30;102386.00;;;;5029298;27;87883;-65
2022/12/18 09:50:32;;;;;;;12.43;9.00;;;1.40;99.90;1.40;102374.00;;;;5029241;27;104671;-65
2022/12/18 09:53:04;;;;;;;9.93;6.47;;;1.60;99.90;1.40;102374.00;;;;5029962;27;87736;-65
2022/12/18 09:55:36;;;;;;;13.23;6.57;;;2.80;99.90;1.60;102357.00;;;;5030331;27;88945;-64
2022/12/18 09:58:36;;;;;;;11.20;6.93;;;1.90;99.90;1.70;102360.00;;;;5028604;27;88481;-65
2022/12/18 10:01:02;;;;;;;11.33;6.77;;;1.90;99.90;1.70;102362.00;;;;5008742;27;99825;-62
2022/12/18 10:03:27;;;;;;;8.73;6.10;;;1.90;99.90;1.80;102346.00;;;;5007319;27;87860;-63
2022/12/18 10:06:00;;;;;;;10.90;5.53;;;1.90;99.90;1.70;102340.00;;;;5007920;27;119232;-66
2022/12/18 10:08:59;;;;;;;10.30;5.67;;;2.00;99.90;1.50;102331.00;;;;4993908;27;88342;-65
2022/12/18 10:11:59;;;;;;;8.40;5.47;;;1.80;99.90;1.40;102317.00;;;;5011996;27;89688;-65
2022/12/18 10:14:40;;;;;;;9.87;6.03;;;1.60;99.90;1.30;102311.00;;;;5028767;27;87749;-66
2022/12/18 10:17:32;;;;;;;12.63;6.73;;;1.50;99.90;1.30;102304.00;;;;5030962;27;87891;-66
2022/12/18 10:20:25;;;;;;;8.30;5.57;;;1.60;99.90;1.40;102304.00;;;;5028664;27;88019;-65
2022/12/18 10:23:05;;;;;;;22.30;18.00;;;1.60;99.90;1.40;102304.00;;;;5030664;27;88051;-66
2022/12/18 10:26:06;;;;;;;8.67;5.70;;;1.60;99.90;1.50;102307.00;;;;5011484;27;87447;-66
2022/12/18 10:28:38;;;;;;;12.87;6.83;;;1.70;99.90;1.60;102302.00;;;;5027777;27;87859;-65
2022/12/18 10:31:18;;;;;;;7.77;6.00;;;1.70;99.90;1.70;102295.00;;;;5010226;27;88125;-66
2022/12/18 10:33:44;;;;;;;8.47;5.53;;;2.00;99.90;1.70;102301.00;;;;5029247;27;88839;-66
2022/12/18 10:36:11;;;;;;;12.80;6.33;;;1.80;99.90;1.60;102291.00;;;;5026446;27;87841;-65
2022/12/18 10:38:37;;;;;;;9.83;5.90;;;1.80;99.90;1.60;102285.00;;;;5009647;27;87975;-67
2022/12/18 10:41:17;;;;;;;6.77;5.70;;;3.20;99.90;1.70;102298.00;;;;5012100;27;88671;-65
2022/12/18 10:43:42;;;;;;;7.77;5.60;;;1.80;99.90;1.80;102298.00;;;;5028819;27;87925;-66
2022/12/18 10:46:08;;;;;;;11.67;5.67;;;2.00;99.90;1.80;102296.00;;;;5027448;27;103290;-66
2022/12/18 10:48:39;;;;;;;8.90;5.87;;;2.00;99.80;1.70;102285.00;;;;5027651;27;88541;-66
2022/12/18 10:51:06;;;;;;;11.90;7.27;;;2.00;98.70;1.70;102281.00;;;;5026595;27;87770;-65
2022/12/18 10:53:35;;;;;;;14.17;5.03;;;1.80;99.30;1.80;102283.00;;;;5030160;27;101531;-67
2022/12/18 10:56:04;;;;;;;9.70;5.63;;;2.00;99.90;1.90;102279.00;;;;5012113;27;87592;-66
2022/12/18 10:58:34;;;;;;;9.17;5.87;;;2.80;99.90;2.00;102269.00;;;;5007523;27;89414;-67